createdAt,value
2019-02-24T00:00:51.712Z,2.10
2019-02-24T00:01:51.669Z,1.60
2019-02-24T00:02:51.658Z,2.60
2019-02-24T00:03:51.649Z,1.70
2019-02-24T00:04:51.579Z,1.50
2019-02-24T00:05:51.548Z,2.00
2019-02-24T00:06:51.530Z,1.20
2019-02-24T00:07:51.472Z,3.20
2019-02-24T00:08:51.455Z,5.00
2019-02-24T00:10:51.400Z,3.10
2019-02-24T00:11:51.368Z,1.80
2019-02-24T00:12:51.340Z,1.90
2019-02-24T00:13:51.285Z,2.30
2019-02-24T00:14:51.274Z,5.20
2019-02-24T00:15:51.241Z,1.80
2019-02-24T00:16:51.192Z,3.50
2019-02-24T00:17:51.197Z,1.40
2019-02-24T00:18:51.130Z,4.50
2019-02-24T00:19:51.100Z,5.00
2019-02-24T00:20:51.092Z,1.70
2019-02-24T00:21:51.056Z,2.90
2019-02-24T00:22:51.013Z,3.80
2019-02-24T00:23:51.223Z,5.00
2019-02-24T00:24:50.943Z,4.50
2019-02-24T00:25:50.928Z,2.30
2019-02-24T00:26:50.992Z,1.90
2019-02-24T00:27:50.850Z,3.20
2019-02-24T00:28:50.841Z,2.50
2019-02-24T00:29:50.783Z,4.30
2019-02-24T00:30:50.789Z,2.90
2019-02-24T00:31:50.741Z,1.80
2019-02-24T00:32:50.688Z,1.50
2019-02-24T00:33:50.657Z,1.60
2019-02-24T00:35:50.637Z,2.50
2019-02-24T00:36:50.567Z,3.50
2019-02-24T00:37:50.533Z,3.10
2019-02-24T00:38:50.533Z,2.50
2019-02-24T00:39:50.491Z,3.70
2019-02-24T00:40:50.605Z,1.80
2019-02-24T00:41:50.424Z,2.20
2019-02-24T00:42:50.395Z,2.10
2019-02-24T00:43:50.342Z,2.90
2019-02-24T00:44:50.314Z,2.60
2019-02-24T00:45:50.314Z,1.50
2019-02-24T00:46:50.274Z,2.90
2019-02-24T00:47:50.247Z,1.50
2019-02-24T00:48:50.206Z,3.30
2019-02-24T00:49:50.184Z,1.50
2019-02-24T00:50:50.131Z,1.40
2019-02-24T00:51:50.097Z,1.90
2019-02-24T00:52:50.102Z,2.70
2019-02-24T00:53:50.046Z,1.50
2019-02-24T00:54:50.001Z,2.30
2019-02-24T00:55:49.983Z,4.00
2019-02-24T00:56:49.940Z,1.60
2019-02-24T00:57:49.924Z,2.10
2019-02-24T00:58:49.872Z,1.40
2019-02-24T00:59:49.850Z,3.40
2019-02-24T01:00:49.827Z,3.30
2019-02-24T01:01:49.796Z,3.00
2019-02-24T01:02:49.753Z,3.70
2019-02-24T01:03:49.733Z,2.50
2019-02-24T01:04:49.700Z,2.30
2019-02-24T01:05:49.659Z,1.90
2019-02-24T01:06:49.992Z,6.10
2019-02-24T01:07:49.692Z,67.70
2019-02-24T01:08:49.561Z,201.30
2019-02-24T01:09:49.522Z,110.50
2019-02-24T01:10:49.509Z,66.60
2019-02-24T01:11:49.479Z,42.60
2019-02-24T01:12:49.580Z,27.90
2019-02-24T01:13:49.426Z,21.40
2019-02-24T01:14:49.394Z,17.10
2019-02-24T01:15:49.349Z,13.50
2019-02-24T01:16:49.336Z,12.50
2019-02-24T01:17:49.274Z,9.40
2019-02-24T01:18:49.241Z,8.70
2019-02-24T01:19:49.233Z,6.40
2019-02-24T01:20:49.176Z,4.90
2019-02-24T01:21:49.164Z,4.60
2019-02-24T01:22:49.128Z,3.60
2019-02-24T01:23:49.078Z,2.30
2019-02-24T01:24:49.067Z,2.80
2019-02-24T01:25:49.055Z,2.90
2019-02-24T01:26:48.994Z,3.10
2019-02-24T01:27:48.952Z,2.00
2019-02-24T01:28:48.920Z,2.70
2019-02-24T01:29:48.918Z,2.30
2019-02-24T01:30:48.875Z,2.10
2019-02-24T01:31:48.832Z,2.30
2019-02-24T01:32:48.825Z,2.20
2019-02-24T01:33:48.797Z,2.70
2019-02-24T01:34:48.737Z,1.80
2019-02-24T01:35:48.724Z,3.50
2019-02-24T01:36:48.678Z,1.60
2019-02-24T01:37:48.635Z,3.00
2019-02-24T01:38:48.626Z,3.90
2019-02-24T01:39:48.588Z,1.90
2019-02-24T01:40:48.558Z,1.60
2019-02-24T01:41:48.541Z,4.50
2019-02-24T01:42:48.477Z,1.50
2019-02-24T01:43:48.470Z,1.50
2019-02-24T01:44:48.436Z,1.90
2019-02-24T01:45:48.394Z,2.20
2019-02-24T01:46:48.377Z,1.60
2019-02-24T01:47:48.350Z,3.30
2019-02-24T01:48:48.319Z,2.20
2019-02-24T01:49:48.293Z,2.70
2019-02-24T01:50:48.263Z,2.40
2019-02-24T01:51:48.194Z,3.30
2019-02-24T01:52:48.163Z,2.70
2019-02-24T01:53:48.164Z,1.80
2019-02-24T01:54:48.118Z,2.50
2019-02-24T01:55:48.064Z,2.50
2019-02-24T01:56:48.132Z,2.10
2019-02-24T01:57:48.031Z,3.90
2019-02-24T01:58:48.021Z,3.50
2019-02-24T01:59:47.962Z,3.20
2019-02-24T02:00:47.911Z,1.90
2019-02-24T02:01:47.891Z,1.40
2019-02-24T02:02:47.886Z,2.10
2019-02-24T02:03:47.828Z,28.00
2019-02-24T02:04:47.785Z,70.90
2019-02-24T02:05:47.770Z,74.40
2019-02-24T02:06:47.742Z,38.20
2019-02-24T02:07:47.708Z,27.80
2019-02-24T02:08:47.677Z,21.10
2019-02-24T02:09:47.792Z,18.80
2019-02-24T02:10:47.633Z,16.10
2019-02-24T02:11:47.606Z,12.40
2019-02-24T02:12:47.529Z,11.40
2019-02-24T02:13:47.519Z,8.70
2019-02-24T02:14:47.491Z,6.30
2019-02-24T02:15:47.658Z,6.90
2019-02-24T02:16:47.423Z,4.50
2019-02-24T02:17:47.413Z,3.70
2019-02-24T02:18:47.350Z,4.90
2019-02-24T02:19:47.330Z,3.20
2019-02-24T02:20:47.336Z,2.50
2019-02-24T02:21:47.265Z,2.80
2019-02-24T02:22:47.238Z,2.80
2019-02-24T02:23:47.210Z,3.40
2019-02-24T02:24:47.171Z,2.30
2019-02-24T02:25:47.121Z,3.60
2019-02-24T02:26:47.088Z,2.00
2019-02-24T02:27:47.058Z,3.40
2019-02-24T02:28:47.026Z,3.60
2019-02-24T02:29:47.015Z,1.70
2019-02-24T02:30:46.962Z,3.30
2019-02-24T02:31:46.933Z,2.20
2019-02-24T02:32:46.922Z,29.90
2019-02-24T02:33:46.881Z,82.30
2019-02-24T02:34:46.864Z,47.50
2019-02-24T02:35:46.833Z,35.70
2019-02-24T02:36:46.774Z,30.20
2019-02-24T02:37:46.820Z,27.50
2019-02-24T02:38:46.722Z,19.40
2019-02-24T02:39:46.680Z,15.20
2019-02-24T02:40:46.647Z,12.80
2019-02-24T02:41:46.843Z,9.50
2019-02-24T02:42:46.604Z,8.50
2019-02-24T02:43:46.566Z,6.10
2019-02-24T02:44:46.560Z,5.20
2019-02-24T02:45:46.494Z,4.30
2019-02-24T02:46:46.482Z,3.20
2019-02-24T02:47:46.699Z,5.00
2019-02-24T02:48:46.393Z,3.80
2019-02-24T02:49:46.388Z,3.10
2019-02-24T02:50:46.334Z,3.00
2019-02-24T02:51:46.323Z,3.20
2019-02-24T02:52:46.276Z,5.10
2019-02-24T02:53:46.247Z,3.80
2019-02-24T02:54:46.202Z,1.80
2019-02-24T02:55:46.166Z,2.50
2019-02-24T02:56:46.157Z,2.10
2019-02-24T02:57:46.111Z,2.00
2019-02-24T02:58:53.971Z,1.70
2019-02-24T02:59:46.071Z,4.60
2019-02-24T03:00:46.013Z,2.90
2019-02-24T03:01:46.004Z,2.60
2019-02-24T03:02:45.969Z,4.00
2019-02-24T03:03:45.937Z,1.90
2019-02-24T03:04:45.904Z,2.30
2019-02-24T03:05:45.857Z,1.90
2019-02-24T03:06:45.825Z,2.50
2019-02-24T03:07:45.827Z,5.70
2019-02-24T03:08:45.777Z,2.60
2019-02-24T03:09:45.734Z,2.10
2019-02-24T03:10:45.707Z,2.40
2019-02-24T03:11:45.688Z,3.60
2019-02-24T03:12:45.663Z,2.00
2019-02-24T03:13:45.647Z,3.40
2019-02-24T03:14:45.593Z,2.30
2019-02-24T03:15:45.529Z,1.70
2019-02-24T03:16:45.521Z,6.00
2019-02-24T03:17:45.485Z,2.30
2019-02-24T03:18:45.444Z,2.70
2019-02-24T03:19:45.424Z,2.60
2019-02-24T03:20:45.389Z,3.70
2019-02-24T03:21:45.373Z,2.40
2019-02-24T03:22:45.316Z,3.30
2019-02-24T03:23:45.290Z,2.10
2019-02-24T03:24:45.273Z,2.60
2019-02-24T03:25:45.214Z,2.50
2019-02-24T03:26:45.182Z,2.10
2019-02-24T03:27:45.146Z,3.30
2019-02-24T03:28:45.121Z,3.20
2019-02-24T03:29:45.144Z,2.90
2019-02-24T03:30:45.057Z,3.90
2019-02-24T03:31:45.040Z,2.30
2019-02-24T03:32:45.017Z,3.10
2019-02-24T03:33:45.295Z,2.70
2019-02-24T03:34:44.931Z,2.90
2019-02-24T03:35:44.925Z,3.00
2019-02-24T03:36:44.868Z,3.80
2019-02-24T03:37:44.858Z,3.60
2019-02-24T03:38:44.815Z,2.10
2019-02-24T03:40:17.988Z,3.00
2019-02-24T03:40:44.754Z,1.50
2019-02-24T03:41:44.712Z,3.10
2019-02-24T03:42:44.668Z,2.60
2019-02-24T03:43:44.656Z,1.90
2019-02-24T03:44:44.756Z,3.30
2019-02-24T03:45:44.627Z,2.10
2019-02-24T03:46:44.591Z,1.90
2019-02-24T03:47:44.507Z,2.40
2019-02-24T03:48:44.509Z,2.80
2019-02-24T03:49:44.467Z,2.40
2019-02-24T03:50:44.767Z,4.80
2019-02-24T03:51:44.416Z,2.80
2019-02-24T03:52:44.371Z,2.10
2019-02-24T03:53:44.315Z,2.40
2019-02-24T03:54:44.328Z,3.90
2019-02-24T03:55:44.272Z,1.70
2019-02-24T03:56:44.270Z,3.90
2019-02-24T03:57:44.223Z,2.90
2019-02-24T03:58:44.183Z,1.70
2019-02-24T03:59:44.143Z,2.30
2019-02-24T04:00:44.119Z,2.10
2019-02-24T04:01:44.058Z,3.50
2019-02-24T04:02:44.033Z,2.40
2019-02-24T04:03:43.997Z,2.20
2019-02-24T04:04:43.966Z,2.10
2019-02-24T04:05:43.939Z,2.10
2019-02-24T04:06:43.916Z,2.40
2019-02-24T04:07:43.866Z,2.10
2019-02-24T04:08:43.836Z,1.80
2019-02-24T04:09:43.812Z,1.70
2019-02-24T04:10:43.792Z,2.70
2019-02-24T04:11:44.091Z,1.60
2019-02-24T04:12:43.735Z,5.50
2019-02-24T04:13:43.708Z,2.50
2019-02-24T04:14:43.652Z,4.50
2019-02-24T04:15:43.613Z,2.40
2019-02-24T04:16:43.602Z,2.30
2019-02-24T04:17:43.787Z,2.10
2019-02-24T04:18:43.524Z,2.60
2019-02-24T04:19:43.515Z,2.50
2019-02-24T04:20:43.448Z,4.70
2019-02-24T04:21:43.438Z,2.00
2019-02-24T04:22:43.406Z,3.30
2019-02-24T04:23:43.373Z,2.60
2019-02-24T04:24:43.345Z,2.30
2019-02-24T04:25:43.289Z,4.70
2019-02-24T04:26:43.276Z,1.90
2019-02-24T04:27:43.225Z,3.40
2019-02-24T04:28:43.191Z,2.20
2019-02-24T04:29:43.194Z,4.30
2019-02-24T04:30:43.126Z,1.60
2019-02-24T04:31:43.119Z,2.50
2019-02-24T04:32:43.071Z,1.70
2019-02-24T04:33:43.031Z,2.00
2019-02-24T04:34:42.995Z,1.70
2019-02-24T04:35:42.962Z,2.60
2019-02-24T04:36:42.941Z,2.60
2019-02-24T04:37:42.904Z,2.00
2019-02-24T04:38:42.873Z,2.00
2019-02-24T04:39:42.855Z,1.80
2019-02-24T04:40:42.824Z,3.80
2019-02-24T04:41:42.794Z,1.70
2019-02-24T04:42:42.765Z,2.00
2019-02-24T04:43:42.729Z,2.40
2019-02-24T04:44:42.691Z,3.60
2019-02-24T04:45:42.664Z,2.10
2019-02-24T04:46:42.637Z,1.90
2019-02-24T04:47:42.625Z,1.70
2019-02-24T04:48:42.552Z,3.20
2019-02-24T04:49:42.512Z,1.60
2019-02-24T04:50:42.483Z,2.00
2019-02-24T04:51:42.472Z,5.00
2019-02-24T04:52:42.421Z,4.20
2019-02-24T04:53:42.414Z,1.80
2019-02-24T04:54:42.730Z,3.00
2019-02-24T04:55:42.323Z,1.80
2019-02-24T04:56:42.312Z,2.60
2019-02-24T04:57:42.276Z,2.30
2019-02-24T04:58:42.244Z,2.10
2019-02-24T04:59:42.198Z,4.70
2019-02-24T05:00:42.182Z,2.90
2019-02-24T05:01:42.126Z,4.20
2019-02-24T05:02:42.128Z,2.20
2019-02-24T05:03:42.058Z,2.70
2019-02-24T05:04:42.030Z,3.10
2019-02-24T05:05:42.018Z,2.80
2019-02-24T05:06:41.981Z,3.30
2019-02-24T05:07:41.953Z,3.10
2019-02-24T05:08:41.903Z,2.90
2019-02-24T05:09:41.890Z,9.20
2019-02-24T05:10:41.857Z,1.90
2019-02-24T05:11:41.813Z,4.80
2019-02-24T05:12:41.792Z,2.20
2019-02-24T05:13:41.752Z,3.00
2019-02-24T05:14:41.724Z,4.70
2019-02-24T05:15:42.046Z,2.80
2019-02-24T05:16:41.674Z,2.50
2019-02-24T05:17:41.612Z,1.80
2019-02-24T05:18:41.597Z,2.00
2019-02-24T05:19:41.563Z,2.30
2019-02-24T05:20:41.511Z,2.30
2019-02-24T05:21:41.893Z,5.30
2019-02-24T05:22:41.451Z,2.70
2019-02-24T05:23:42.962Z,2.70
2019-02-24T05:24:41.385Z,2.20
2019-02-24T05:25:41.356Z,3.10
2019-02-24T05:26:41.323Z,1.80
2019-02-24T05:27:41.493Z,1.70
2019-02-24T05:28:41.273Z,3.60
2019-02-24T05:29:45.956Z,4.60
2019-02-24T05:30:41.201Z,4.40
2019-02-24T05:31:41.175Z,1.90
2019-02-24T05:32:41.144Z,2.30
2019-02-24T05:33:41.107Z,2.40
2019-02-24T05:34:41.061Z,2.20
2019-02-24T05:35:41.037Z,1.70
2019-02-24T05:36:40.992Z,2.40
2019-02-24T05:37:40.970Z,2.20
2019-02-24T05:38:40.942Z,1.90
2019-02-24T05:39:40.916Z,1.90
2019-02-24T05:40:40.902Z,2.80
2019-02-24T05:41:40.851Z,2.10
2019-02-24T05:42:42.495Z,4.20
2019-02-24T05:43:41.695Z,2.10
2019-02-24T05:44:40.756Z,2.60
2019-02-24T05:45:40.716Z,1.80
2019-02-24T05:46:40.679Z,2.20
2019-02-24T05:47:40.657Z,2.80
2019-02-24T05:48:40.629Z,6.50
2019-02-24T05:49:40.987Z,1.90
2019-02-24T05:50:40.553Z,3.20
2019-02-24T05:51:40.581Z,1.70
2019-02-24T05:52:40.498Z,2.20
2019-02-24T05:53:40.472Z,1.90
2019-02-24T05:54:40.427Z,1.90
2019-02-24T05:55:40.640Z,3.90
2019-02-24T05:56:40.360Z,2.90
2019-02-24T05:57:40.337Z,4.50
2019-02-24T05:58:40.289Z,1.70
2019-02-24T05:59:40.244Z,2.70
2019-02-24T06:00:40.236Z,2.80
2019-02-24T06:01:40.194Z,2.20
2019-02-24T06:02:40.160Z,2.20
2019-02-24T06:03:40.134Z,1.80
2019-02-24T06:04:40.096Z,2.20
2019-02-24T06:05:40.058Z,2.70
2019-02-24T06:06:40.031Z,5.90
2019-02-24T06:07:40.005Z,2.80
2019-02-24T06:08:39.977Z,2.10
2019-02-24T06:09:39.934Z,2.10
2019-02-24T06:10:39.902Z,2.20
2019-02-24T06:11:39.868Z,2.40
2019-02-24T06:12:39.834Z,4.50
2019-02-24T06:13:39.812Z,3.40
2019-02-24T06:14:39.782Z,1.60
2019-02-24T06:15:39.736Z,2.70
2019-02-24T06:16:39.770Z,2.00
2019-02-24T06:17:39.679Z,3.30
2019-02-24T06:18:39.639Z,2.20
2019-02-24T06:19:39.624Z,3.00
2019-02-24T06:20:39.591Z,2.00
2019-02-24T06:21:39.547Z,2.00
2019-02-24T06:22:39.561Z,4.80
2019-02-24T06:23:39.496Z,2.50
2019-02-24T06:24:39.448Z,2.30
2019-02-24T06:25:39.415Z,2.60
2019-02-24T06:26:39.406Z,2.70
2019-02-24T06:27:39.394Z,2.70
2019-02-24T06:28:39.313Z,2.70
2019-02-24T06:29:39.272Z,2.10
2019-02-24T06:30:39.248Z,2.30
2019-02-24T06:31:39.206Z,2.40
2019-02-24T06:32:39.201Z,3.70
2019-02-24T06:33:39.166Z,2.20
2019-02-24T06:34:39.124Z,2.70
2019-02-24T06:35:39.095Z,2.00
2019-02-24T06:36:39.062Z,2.30
2019-02-24T06:37:39.018Z,1.80
2019-02-24T06:38:38.989Z,2.00
2019-02-24T06:39:38.958Z,3.70
2019-02-24T06:40:38.927Z,2.80
2019-02-24T06:41:38.900Z,2.90
2019-02-24T06:42:38.867Z,2.50
2019-02-24T06:43:38.865Z,1.90
2019-02-24T06:44:38.788Z,2.90
2019-02-24T06:45:38.769Z,2.50
2019-02-24T06:46:38.717Z,1.80
2019-02-24T06:47:38.701Z,1.80
2019-02-24T06:48:38.678Z,2.70
2019-02-24T06:49:38.796Z,2.50
2019-02-24T06:50:38.608Z,4.60
2019-02-24T06:51:38.566Z,4.70
2019-02-24T06:52:38.536Z,1.60
2019-02-24T06:53:38.523Z,1.90
2019-02-24T06:54:38.467Z,3.20
2019-02-24T06:55:38.496Z,1.80
2019-02-24T06:56:38.476Z,2.90
2019-02-24T06:57:38.396Z,2.80
2019-02-24T06:58:38.322Z,2.40
2019-02-24T06:59:38.325Z,1.90
2019-02-24T07:00:38.279Z,2.10
2019-02-24T07:01:38.233Z,1.80
2019-02-24T07:02:38.212Z,2.60
2019-02-24T07:03:38.171Z,2.10
2019-02-24T07:04:38.158Z,1.60
2019-02-24T07:05:38.112Z,5.50
2019-02-24T07:06:38.077Z,1.90
2019-02-24T07:07:38.053Z,3.40
2019-02-24T07:08:38.019Z,7.60
2019-02-24T07:09:37.990Z,2.80
2019-02-24T07:10:37.951Z,2.30
2019-02-24T07:11:37.927Z,2.80
2019-02-24T07:12:37.887Z,1.90
2019-02-24T07:13:37.844Z,1.90
2019-02-24T07:14:37.803Z,1.50
2019-02-24T07:15:37.942Z,3.30
2019-02-24T07:16:37.754Z,2.40
2019-02-24T07:17:37.727Z,3.10
2019-02-24T07:18:37.692Z,2.10
2019-02-24T07:19:37.654Z,1.60
2019-02-24T07:20:37.620Z,2.10
2019-02-24T07:21:37.573Z,2.30
2019-02-24T07:22:37.550Z,5.30
2019-02-24T07:23:37.517Z,3.30
2019-02-24T07:24:37.495Z,2.30
2019-02-24T07:25:37.473Z,1.70
2019-02-24T07:26:37.428Z,5.80
2019-02-24T07:27:37.395Z,1.80
2019-02-24T07:28:37.369Z,2.30
2019-02-24T07:29:37.358Z,2.10
2019-02-24T07:30:37.298Z,2.40
2019-02-24T07:31:37.265Z,2.10
2019-02-24T07:32:37.233Z,2.60
2019-02-24T07:33:37.197Z,2.70
2019-02-24T07:34:37.146Z,3.90
2019-02-24T07:35:37.135Z,2.40
2019-02-24T07:36:37.092Z,3.80
2019-02-24T07:37:37.071Z,1.80
2019-02-24T07:38:37.038Z,1.70
2019-02-24T07:39:37.001Z,2.00
2019-02-24T07:40:36.952Z,1.50
2019-02-24T07:41:36.991Z,3.10
2019-02-24T07:42:36.894Z,2.00
2019-02-24T07:43:36.862Z,1.80
2019-02-24T07:44:36.827Z,2.60
2019-02-24T07:45:36.806Z,3.50
2019-02-24T07:46:36.769Z,5.20
2019-02-24T07:48:36.710Z,5.10
2019-02-24T07:49:36.689Z,1.90
2019-02-24T07:50:36.633Z,1.80
2019-02-24T07:51:36.615Z,3.30
2019-02-24T07:52:36.576Z,2.50
2019-02-24T07:53:36.732Z,2.00
2019-02-24T07:54:36.501Z,2.00
2019-02-24T07:55:36.469Z,2.30
2019-02-24T07:56:37.394Z,2.60
2019-02-24T07:57:36.406Z,1.90
2019-02-24T07:58:36.359Z,1.60
2019-02-24T07:59:36.346Z,1.80
2019-02-24T08:00:36.310Z,2.10
2019-02-24T08:01:36.269Z,2.60
2019-02-24T08:02:36.225Z,2.80
2019-02-24T08:03:36.208Z,4.20
2019-02-24T08:04:36.183Z,2.40
2019-02-24T08:05:36.149Z,1.90
2019-02-24T08:06:36.107Z,1.50
2019-02-24T08:07:36.088Z,1.70
2019-02-24T08:08:36.039Z,9.60
2019-02-24T08:09:36.022Z,2.10
2019-02-24T08:10:35.974Z,1.50
2019-02-24T08:11:35.956Z,2.30
2019-02-24T08:12:35.921Z,2.20
2019-02-24T08:13:35.879Z,1.70
2019-02-24T08:14:35.891Z,1.70
2019-02-24T08:15:35.823Z,2.90
2019-02-24T08:16:35.784Z,2.00
2019-02-24T08:17:35.759Z,1.90
2019-02-24T08:18:35.729Z,2.20
2019-02-24T08:19:35.698Z,2.90
2019-02-24T08:20:35.641Z,1.80
2019-02-24T08:21:35.625Z,1.80
2019-02-24T08:22:35.581Z,2.20
2019-02-24T08:23:35.556Z,1.60
2019-02-24T08:24:35.523Z,2.00
2019-02-24T08:25:35.498Z,2.90
2019-02-24T08:26:35.451Z,2.00
2019-02-24T08:27:35.427Z,3.50
2019-02-24T08:28:35.370Z,1.80
2019-02-24T08:29:35.365Z,2.90
2019-02-24T08:30:41.194Z,2.60
2019-02-24T08:31:35.283Z,3.80
2019-02-24T08:32:35.273Z,2.80
2019-02-24T08:33:35.231Z,2.10
2019-02-24T08:34:35.182Z,2.00
2019-02-24T08:35:35.144Z,2.70
2019-02-24T08:36:35.128Z,2.90
2019-02-24T08:37:35.096Z,2.10
2019-02-24T08:38:35.046Z,2.90
2019-02-24T08:39:35.053Z,2.40
2019-02-24T08:40:35.042Z,1.80
2019-02-24T08:41:34.959Z,2.30
2019-02-24T08:42:34.939Z,2.10
2019-02-24T08:43:34.898Z,2.30
2019-02-24T08:44:34.863Z,1.60
2019-02-24T08:45:34.810Z,2.40
2019-02-24T08:46:34.808Z,3.40
2019-02-24T08:47:34.820Z,2.70
2019-02-24T08:48:34.711Z,1.70
2019-02-24T08:49:34.679Z,1.90
2019-02-24T08:50:34.674Z,2.80
2019-02-24T08:51:34.618Z,3.00
2019-02-24T08:52:34.579Z,2.90
2019-02-24T08:53:34.564Z,3.40
2019-02-24T08:54:34.537Z,2.30
2019-02-24T08:55:34.483Z,2.30
2019-02-24T08:56:34.461Z,2.60
2019-02-24T08:57:34.482Z,3.90
2019-02-24T08:58:34.379Z,3.60
2019-02-24T08:59:34.366Z,3.00
2019-02-24T09:00:34.329Z,2.00
2019-02-24T09:01:34.307Z,2.20
2019-02-24T09:02:34.262Z,4.70
2019-02-24T09:03:34.236Z,1.80
2019-02-24T09:04:34.193Z,2.30
2019-02-24T09:05:34.176Z,2.50
2019-02-24T09:06:34.153Z,4.30
2019-02-24T09:07:34.110Z,2.10
2019-02-24T09:08:34.069Z,3.70
2019-02-24T09:09:34.046Z,2.00
2019-02-24T09:10:34.045Z,6.20
2019-02-24T09:11:33.972Z,2.50
2019-02-24T09:12:33.937Z,1.70
2019-02-24T09:13:33.907Z,3.20
2019-02-24T09:14:33.872Z,2.00
2019-02-24T09:15:33.853Z,2.10
2019-02-24T09:16:33.785Z,2.70
2019-02-24T09:17:33.773Z,2.20
2019-02-24T09:18:33.722Z,3.20
2019-02-24T09:19:33.707Z,2.90
2019-02-24T09:20:33.662Z,3.60
2019-02-24T09:21:33.650Z,3.10
2019-02-24T09:22:33.606Z,3.40
2019-02-24T09:23:33.590Z,2.80
2019-02-24T09:24:33.688Z,3.30
2019-02-24T09:25:33.512Z,2.70
2019-02-24T09:26:33.464Z,2.80
2019-02-24T09:27:33.437Z,2.40
2019-02-24T09:28:33.386Z,2.50
2019-02-24T09:29:33.374Z,2.60
2019-02-24T09:30:33.442Z,2.60
2019-02-24T09:31:33.301Z,3.70
2019-02-24T09:32:33.289Z,2.50
2019-02-24T09:33:33.246Z,2.70
2019-02-24T09:35:33.165Z,1.80
2019-02-24T09:36:33.152Z,2.50
2019-02-24T09:37:33.109Z,3.10
2019-02-24T09:38:33.057Z,2.30
2019-02-24T09:39:33.037Z,5.30
2019-02-24T09:40:32.991Z,4.30
2019-02-24T09:41:32.979Z,3.20
2019-02-24T09:42:32.947Z,4.80
2019-02-24T09:43:32.911Z,2.30
2019-02-24T09:44:32.925Z,3.30
2019-02-24T09:45:33.195Z,3.90
2019-02-24T09:46:32.801Z,3.40
2019-02-24T09:47:32.779Z,5.10
2019-02-24T09:48:32.750Z,2.60
2019-02-24T09:49:32.715Z,2.70
2019-02-24T09:50:32.657Z,5.50
2019-02-24T09:51:32.828Z,3.10
2019-02-24T09:52:32.620Z,2.80
2019-02-24T09:53:32.569Z,3.40
2019-02-24T09:54:32.545Z,3.10
2019-02-24T09:55:32.536Z,4.00
2019-02-24T09:56:32.480Z,3.30
2019-02-24T09:57:32.455Z,2.50
2019-02-24T09:58:32.460Z,2.40
2019-02-24T09:59:32.425Z,4.60
2019-02-24T10:00:32.335Z,2.10
2019-02-24T10:01:32.317Z,4.00
2019-02-24T10:02:32.284Z,2.00
2019-02-24T10:03:32.254Z,2.30
2019-02-24T10:04:32.222Z,2.30
2019-02-24T10:05:32.185Z,3.50
2019-02-24T10:06:32.139Z,2.20
2019-02-24T10:07:32.121Z,2.30
2019-02-24T10:08:32.067Z,2.70
2019-02-24T10:09:32.066Z,2.50
2019-02-24T10:10:32.014Z,3.20
2019-02-24T10:11:31.990Z,2.70
2019-02-24T10:12:32.134Z,2.10
2019-02-24T10:13:31.902Z,2.40
2019-02-24T10:14:31.868Z,1.90
2019-02-24T10:15:31.857Z,2.70
2019-02-24T10:16:31.827Z,2.70
2019-02-24T10:17:31.795Z,3.50
2019-02-24T10:18:32.089Z,2.50
2019-02-24T10:19:31.734Z,1.70
2019-02-24T10:20:31.689Z,3.00
2019-02-24T10:21:31.661Z,1.80
2019-02-24T10:22:31.684Z,2.30
2019-02-24T10:23:31.577Z,2.10
2019-02-24T10:24:31.566Z,3.00
2019-02-24T10:25:31.523Z,2.40
2019-02-24T10:26:31.492Z,2.40
2019-02-24T10:27:31.468Z,3.20
2019-02-24T10:28:31.436Z,2.40
2019-02-24T10:29:31.401Z,1.70
2019-02-24T10:30:31.681Z,2.40
2019-02-24T10:31:31.334Z,1.90
2019-02-24T10:32:31.313Z,2.70
2019-02-24T10:33:31.275Z,2.40
2019-02-24T10:34:31.255Z,3.60
2019-02-24T10:35:31.216Z,4.10
2019-02-24T10:36:31.160Z,2.10
2019-02-24T10:37:31.151Z,3.40
2019-02-24T10:38:31.106Z,4.50
2019-02-24T10:39:31.089Z,2.00
2019-02-24T10:40:31.054Z,2.00
2019-02-24T10:41:31.019Z,4.10
2019-02-24T10:42:31.199Z,2.70
2019-02-24T10:43:30.954Z,2.40
2019-02-24T10:44:30.914Z,2.00
2019-02-24T10:46:30.845Z,5.30
2019-02-24T10:47:30.810Z,2.80
2019-02-24T10:48:30.795Z,2.50
2019-02-24T10:49:30.768Z,2.50
2019-02-24T10:50:30.745Z,2.30
2019-02-24T10:51:30.704Z,2.10
2019-02-24T10:52:30.775Z,2.90
2019-02-24T10:53:30.645Z,2.00
2019-02-24T10:54:30.607Z,2.60
2019-02-24T10:55:30.583Z,1.70
2019-02-24T10:56:30.912Z,2.20
2019-02-24T10:57:30.501Z,2.70
2019-02-24T10:58:34.663Z,1.90
2019-02-24T10:59:30.476Z,3.60
2019-02-24T11:00:30.423Z,1.70
2019-02-24T11:01:30.393Z,3.10
2019-02-24T11:02:30.343Z,1.60
2019-02-24T11:03:30.322Z,1.90
2019-02-24T11:04:30.299Z,3.60
2019-02-24T11:05:30.271Z,1.50
2019-02-24T11:06:30.238Z,2.50
2019-02-24T11:07:30.206Z,1.50
2019-02-24T11:08:30.231Z,1.50
2019-02-24T11:09:30.150Z,2.20
2019-02-24T11:10:30.095Z,1.50
2019-02-24T11:11:30.087Z,1.80
2019-02-24T11:12:30.047Z,2.10
2019-02-24T11:13:30.037Z,1.30
2019-02-24T11:14:30.005Z,1.70
2019-02-24T11:15:30.034Z,1.70
2019-02-24T11:16:29.925Z,2.00
2019-02-24T11:17:30.271Z,1.70
2019-02-24T11:18:29.870Z,6.80
2019-02-24T11:19:29.849Z,17.60
2019-02-24T11:20:29.807Z,39.90
2019-02-24T11:21:29.788Z,46.70
2019-02-24T11:22:29.745Z,22.00
2019-02-24T11:23:29.879Z,24.70
2019-02-24T11:24:29.689Z,20.40
2019-02-24T11:25:29.648Z,20.50
2019-02-24T11:26:29.626Z,13.50
2019-02-24T11:27:29.591Z,21.80
2019-02-24T11:28:29.637Z,11.10
2019-02-24T11:29:29.537Z,8.60
2019-02-24T11:30:29.484Z,9.30
2019-02-24T11:31:37.976Z,16.80
2019-02-24T11:32:29.445Z,84.10
2019-02-24T11:33:29.414Z,166.60
2019-02-24T11:34:29.379Z,136.50
2019-02-24T11:35:29.355Z,115.90
2019-02-24T11:36:29.345Z,58.90
2019-02-24T11:37:29.278Z,54.90
2019-02-24T11:38:29.266Z,14.40
2019-02-24T11:39:29.232Z,10.40
2019-02-24T11:40:29.186Z,10.00
2019-02-24T11:41:29.180Z,4.70
2019-02-24T11:42:29.130Z,5.20
2019-02-24T11:43:29.109Z,4.20
2019-02-24T11:44:29.089Z,3.00
2019-02-24T11:45:29.076Z,3.60
2019-02-24T11:46:29.027Z,2.50
2019-02-24T11:47:29.004Z,3.70
2019-02-24T11:48:28.950Z,3.40
2019-02-24T11:49:28.967Z,2.90
2019-02-24T11:50:28.926Z,2.60
2019-02-24T11:51:28.858Z,2.20
2019-02-24T11:52:28.840Z,1.60
2019-02-24T11:53:28.826Z,2.20
2019-02-24T11:54:28.783Z,1.50
2019-02-24T11:55:28.854Z,1.50
2019-02-24T11:56:28.792Z,1.40
2019-02-24T11:57:28.685Z,1.10
2019-02-24T11:58:28.683Z,1.60
2019-02-24T11:59:28.643Z,1.10
2019-02-24T12:00:28.620Z,5.00
2019-02-24T12:01:28.597Z,3.60
2019-02-24T12:02:34.297Z,4.70
2019-02-24T12:03:28.511Z,8.10
2019-02-24T12:04:28.504Z,11.00
2019-02-24T12:05:28.853Z,16.70
2019-02-24T12:06:28.481Z,11.00
2019-02-24T12:07:28.422Z,14.80
2019-02-24T12:08:28.367Z,10.70
2019-02-24T12:09:28.375Z,7.20
2019-02-24T12:10:28.325Z,8.50
2019-02-24T12:11:28.307Z,4.60
2019-02-24T12:12:28.270Z,4.70
2019-02-24T12:13:28.446Z,4.10
2019-02-24T12:14:28.216Z,3.70
2019-02-24T12:15:28.193Z,3.70
2019-02-24T12:16:28.148Z,4.30
2019-02-24T12:17:28.115Z,4.40
2019-02-24T12:18:28.167Z,4.10
2019-02-24T12:19:28.093Z,6.90
2019-02-24T12:20:28.135Z,3.30
2019-02-24T12:21:28.279Z,2.80
2019-02-24T12:22:27.994Z,3.00
2019-02-24T12:23:27.955Z,1.90
2019-02-24T12:24:27.927Z,2.30
2019-02-24T12:25:27.901Z,3.30
2019-02-24T12:26:27.858Z,2.10
2019-02-24T12:27:27.968Z,1.40
2019-02-24T12:28:27.815Z,1.80
2019-02-24T12:29:27.807Z,3.50
2019-02-24T12:30:27.757Z,4.80
2019-02-24T12:31:27.732Z,3.10
2019-02-24T12:32:27.802Z,1.40
2019-02-24T12:33:27.794Z,1.50
2019-02-24T12:34:27.646Z,1.50
2019-02-24T12:35:27.603Z,1.40
2019-02-24T12:36:27.590Z,1.20
2019-02-24T12:37:27.623Z,1.30
2019-02-24T12:38:27.692Z,5.00
2019-02-24T12:39:27.486Z,2.00
2019-02-24T12:40:27.462Z,1.20
2019-02-24T12:41:27.437Z,1.40
2019-02-24T12:42:27.457Z,1.00
2019-02-24T12:43:27.416Z,1.70
2019-02-24T12:44:27.373Z,2.00
2019-02-24T12:45:27.320Z,1.40
2019-02-24T12:46:27.331Z,0.80
2019-02-24T12:47:27.297Z,1.30
2019-02-24T12:48:27.276Z,1.30
2019-02-24T12:50:27.198Z,3.90
2019-02-24T12:51:27.184Z,1.60
2019-02-24T12:52:27.154Z,1.00
2019-02-24T12:53:27.596Z,1.10
2019-02-24T12:54:27.101Z,1.30
2019-02-24T12:55:27.069Z,1.20
2019-02-24T12:56:27.040Z,0.80
2019-02-24T12:57:27.008Z,1.30
2019-02-24T12:58:26.989Z,1.30
2019-02-24T12:59:27.271Z,1.30
2019-02-24T13:00:26.920Z,0.80
2019-02-24T13:01:26.904Z,1.20
2019-02-24T13:02:26.864Z,1.10
2019-02-24T13:03:26.843Z,1.50
2019-02-24T13:04:28.764Z,1.30
2019-02-24T13:05:26.816Z,1.30
2019-02-24T13:06:26.781Z,1.60
2019-02-24T13:07:26.753Z,1.20
2019-02-24T13:08:26.715Z,1.30
2019-02-24T13:09:26.685Z,3.80
2019-02-24T13:10:26.658Z,2.30
2019-02-24T13:11:26.668Z,1.60
2019-02-24T13:12:26.604Z,2.40
2019-02-24T13:13:26.603Z,1.10
2019-02-24T13:14:26.556Z,2.30
2019-02-24T13:15:26.528Z,1.30
2019-02-24T13:16:26.800Z,1.20
2019-02-24T13:17:26.472Z,1.30
2019-02-24T13:18:26.438Z,1.10
2019-02-24T13:19:26.426Z,2.00
2019-02-24T13:20:26.396Z,0.90
2019-02-24T13:21:26.357Z,1.30
2019-02-24T13:22:26.348Z,1.10